Shirley Basin, Wyoming
Current Conditions -  °F | °C
As of 5:53 PM on Friday 21 Nov 2014 (Local Time) from KCPR Reporting Station
Clear Clear  
Wind Chill: 24°   Ceiling: Unl
Heat Index: 33°   Visibility: 10mi
Dew Point: 23°   Wind: 12mph
Humidity: 66%   Direction: 220°SW
Pressure: 29.89"   Gusts: NA
Location:  42.85°N, 106.31°W
Report Text: KCPR 220053Z 22010KT 10SM CLR 01/M05 A2989 RMK AO2 SLP136 T00061050
Loading
Personal Weather Stations






























Interactive Weather Map New forecast layout! Learn more

10-Day Weather Forecast

Advertisements
Track Severe Weather on mobile